sensor_id;sensor_type;location;lat;lon;timestamp;P1;durP1;ratioP1;P2;durP2;ratioP2
77234;SDS011;66253;50.526;14.974;2023-03-14T00:01:08;9.40;;;5.00;;
77234;SDS011;66253;50.526;14.974;2023-03-14T00:03:39;10.10;;;4.30;;
77234;SDS011;66253;50.526;14.974;2023-03-14T00:06:05;9.40;;;4.50;;
77234;SDS011;66253;50.526;14.974;2023-03-14T00:08:32;9.10;;;4.60;;
77234;SDS011;66253;50.526;14.974;2023-03-14T00:10:58;9.70;;;4.90;;
77234;SDS011;66253;50.526;14.974;2023-03-14T00:13:28;9.30;;;4.20;;
77234;SDS011;66253;50.526;14.974;2023-03-14T00:15:54;13.50;;;4.70;;
77234;SDS011;66253;50.526;14.974;2023-03-14T00:18:20;8.00;;;4.30;;
77234;SDS011;66253;50.526;14.974;2023-03-14T00:20:46;12.80;;;5.40;;
77234;SDS011;66253;50.526;14.974;2023-03-14T00:23:15;16.70;;;6.30;;
77234;SDS011;66253;50.526;14.974;2023-03-14T00:25:40;10.70;;;4.20;;
77234;SDS011;66253;50.526;14.974;2023-03-14T00:28:06;9.00;;;4.20;;
77234;SDS011;66253;50.526;14.974;2023-03-14T00:30:37;14.30;;;5.50;;
77234;SDS011;66253;50.526;14.974;2023-03-14T00:33:03;13.90;;;5.20;;
77234;SDS011;66253;50.526;14.974;2023-03-14T00:35:38;12.20;;;5.10;;
77234;SDS011;66253;50.526;14.974;2023-03-14T00:38:04;9.00;;;4.80;;
77234;SDS011;66253;50.526;14.974;2023-03-14T00:40:32;10.40;;;4.80;;
77234;SDS011;66253;50.526;14.974;2023-03-14T00:43:07;12.40;;;6.10;;
77234;SDS011;66253;50.526;14.974;2023-03-14T00:45:42;13.70;;;6.80;;
77234;SDS011;66253;50.526;14.974;2023-03-14T00:48:25;12.20;;;5.30;;
77234;SDS011;66253;50.526;14.974;2023-03-14T00:51:13;10.10;;;5.60;;
77234;SDS011;66253;50.526;14.974;2023-03-14T00:53:40;11.00;;;4.90;;
77234;SDS011;66253;50.526;14.974;2023-03-14T00:56:18;11.80;;;5.40;;
77234;SDS011;66253;50.526;14.974;2023-03-14T00:58:54;10.40;;;5.00;;
77234;SDS011;66253;50.526;14.974;2023-03-14T01:01:23;11.70;;;5.30;;
77234;SDS011;66253;50.526;14.974;2023-03-14T01:03:55;10.10;;;4.90;;
77234;SDS011;66253;50.526;14.974;2023-03-14T01:06:25;12.40;;;5.70;;
77234;SDS011;66253;50.526;14.974;2023-03-14T01:09:05;11.00;;;6.00;;
77234;SDS011;66253;50.526;14.974;2023-03-14T01:11:32;13.40;;;6.80;;
77234;SDS011;66253;50.526;14.974;2023-03-14T01:14:00;14.00;;;6.80;;
77234;SDS011;66253;50.526;14.974;2023-03-14T01:16:27;10.60;;;6.50;;
77234;SDS011;66253;50.526;14.974;2023-03-14T01:18:54;12.60;;;6.40;;
77234;SDS011;66253;50.526;14.974;2023-03-14T01:21:33;13.30;;;6.60;;
77234;SDS011;66253;50.526;14.974;2023-03-14T01:24:00;13.90;;;7.40;;
77234;SDS011;66253;50.526;14.974;2023-03-14T01:31:47;8.00;;;4.50;;
77234;SDS011;66253;50.526;14.974;2023-03-14T01:34:16;10.30;;;4.70;;
77234;SDS011;66253;50.526;14.974;2023-03-14T01:36:49;11.30;;;4.70;;
77234;SDS011;66253;50.526;14.974;2023-03-14T01:39:21;9.30;;;4.40;;
77234;SDS011;66253;50.526;14.974;2023-03-14T01:41:47;10.10;;;4.70;;
77234;SDS011;66253;50.526;14.974;2023-03-14T01:44:13;10.40;;;4.70;;
77234;SDS011;66253;50.526;14.974;2023-03-14T01:46:39;10.50;;;4.70;;
77234;SDS011;66253;50.526;14.974;2023-03-14T01:49:30;10.10;;;5.40;;
77234;SDS011;66253;50.526;14.974;2023-03-14T01:52:10;8.60;;;4.50;;
77234;SDS011;66253;50.526;14.974;2023-03-14T01:54:44;8.60;;;4.30;;
77234;SDS011;66253;50.526;14.974;2023-03-14T01:57:35;10.40;;;4.80;;
77234;SDS011;66253;50.526;14.974;2023-03-14T02:00:11;8.80;;;3.90;;
77234;SDS011;66253;50.526;14.974;2023-03-14T02:02:41;10.90;;;5.60;;
77234;SDS011;66253;50.526;14.974;2023-03-14T02:05:12;11.30;;;5.90;;
77234;SDS011;66253;50.526;14.974;2023-03-14T02:07:51;11.40;;;6.00;;
77234;SDS011;66253;50.526;14.974;2023-03-14T02:10:24;9.90;;;4.70;;
77234;SDS011;66253;50.526;14.974;2023-03-14T02:13:13;9.90;;;4.90;;
77234;SDS011;66253;50.526;14.974;2023-03-14T02:15:39;10.50;;;5.10;;
77234;SDS011;66253;50.526;14.974;2023-03-14T02:18:14;10.00;;;4.80;;
77234;SDS011;66253;50.526;14.974;2023-03-14T02:20:50;9.60;;;4.70;;
77234;SDS011;66253;50.526;14.974;2023-03-14T02:26:15;9.90;;;4.90;;
77234;SDS011;66253;50.526;14.974;2023-03-14T02:28:57;8.80;;;4.70;;
77234;SDS011;66253;50.526;14.974;2023-03-14T02:31:23;8.60;;;4.90;;
77234;SDS011;66253;50.526;14.974;2023-03-14T02:33:58;9.90;;;5.20;;
77234;SDS011;66253;50.526;14.974;2023-03-14T02:36:25;10.80;;;6.10;;
77234;SDS011;66253;50.526;14.974;2023-03-14T02:38:53;10.80;;;5.70;;
77234;SDS011;66253;50.526;14.974;2023-03-14T02:41:29;10.00;;;4.80;;
77234;SDS011;66253;50.526;14.974;2023-03-14T02:43:57;9.90;;;5.10;;
77234;SDS011;66253;50.526;14.974;2023-03-14T02:46:23;9.10;;;4.80;;
77234;SDS011;66253;50.526;14.974;2023-03-14T02:49:01;9.60;;;5.20;;
77234;SDS011;66253;50.526;14.974;2023-03-14T02:51:35;10.60;;;4.90;;
77234;SDS011;66253;50.526;14.974;2023-03-14T02:54:03;9.50;;;5.10;;
77234;SDS011;66253;50.526;14.974;2023-03-14T02:56:28;12.00;;;4.90;;
77234;SDS011;66253;50.526;14.974;2023-03-14T02:58:54;8.30;;;4.30;;
77234;SDS011;66253;50.526;14.974;2023-03-14T03:01:20;10.40;;;4.50;;
77234;SDS011;66253;50.526;14.974;2023-03-14T03:03:49;9.00;;;4.20;;
77234;SDS011;66253;50.526;14.974;2023-03-14T03:06:15;10.20;;;4.60;;
77234;SDS011;66253;50.526;14.974;2023-03-14T03:09:26;7.20;;;3.80;;
77234;SDS011;66253;50.526;14.974;2023-03-14T03:11:59;8.80;;;4.50;;
77234;SDS011;66253;50.526;14.974;2023-03-14T03:14:29;9.40;;;4.40;;
77234;SDS011;66253;50.526;14.974;2023-03-14T03:16:57;9.60;;;3.90;;
77234;SDS011;66253;50.526;14.974;2023-03-14T03:19:26;9.10;;;4.20;;
77234;SDS011;66253;50.526;14.974;2023-03-14T03:21:58;8.80;;;4.90;;
77234;SDS011;66253;50.526;14.974;2023-03-14T03:24:39;9.60;;;4.80;;
77234;SDS011;66253;50.526;14.974;2023-03-14T03:27:04;8.50;;;4.50;;
77234;SDS011;66253;50.526;14.974;2023-03-14T03:29:32;7.80;;;3.80;;
77234;SDS011;66253;50.526;14.974;2023-03-14T03:31:58;9.60;;;4.60;;
77234;SDS011;66253;50.526;14.974;2023-03-14T03:34:24;10.30;;;4.10;;
77234;SDS011;66253;50.526;14.974;2023-03-14T03:36:50;9.60;;;4.30;;
77234;SDS011;66253;50.526;14.974;2023-03-14T03:39:15;10.00;;;4.40;;
77234;SDS011;66253;50.526;14.974;2023-03-14T03:41:44;9.20;;;4.40;;
77234;SDS011;66253;50.526;14.974;2023-03-14T03:44:10;9.00;;;4.70;;
77234;SDS011;66253;50.526;14.974;2023-03-14T03:46:37;11.10;;;6.00;;
77234;SDS011;66253;50.526;14.974;2023-03-14T03:49:12;11.70;;;5.40;;
77234;SDS011;66253;50.526;14.974;2023-03-14T03:51:39;8.60;;;4.70;;
77234;SDS011;66253;50.526;14.974;2023-03-14T03:54:08;8.70;;;4.40;;
77234;SDS011;66253;50.526;14.974;2023-03-14T03:56:36;10.00;;;4.70;;
77234;SDS011;66253;50.526;14.974;2023-03-14T03:59:04;9.80;;;4.90;;
77234;SDS011;66253;50.526;14.974;2023-03-14T04:01:30;10.90;;;4.80;;
77234;SDS011;66253;50.526;14.974;2023-03-14T04:03:59;8.70;;;4.70;;
77234;SDS011;66253;50.526;14.974;2023-03-14T04:06:25;8.50;;;4.90;;
77234;SDS011;66253;50.526;14.974;2023-03-14T04:08:59;9.90;;;4.90;;
77234;SDS011;66253;50.526;14.974;2023-03-14T04:11:37;12.40;;;6.00;;
77234;SDS011;66253;50.526;14.974;2023-03-14T04:14:04;11.30;;;5.80;;
77234;SDS011;66253;50.526;14.974;2023-03-14T04:19:13;12.20;;;6.20;;
77234;SDS011;66253;50.526;14.974;2023-03-14T04:24:58;11.70;;;6.10;;
77234;SDS011;66253;50.526;14.974;2023-03-14T04:27:35;11.30;;;5.80;;
77234;SDS011;66253;50.526;14.974;2023-03-14T04:30:01;16.40;;;6.10;;
77234;SDS011;66253;50.526;14.974;2023-03-14T04:32:31;12.80;;;6.80;;
77234;SDS011;66253;50.526;14.974;2023-03-14T04:34:56;13.20;;;7.00;;
77234;SDS011;66253;50.526;14.974;2023-03-14T04:37:25;11.30;;;7.10;;
77234;SDS011;66253;50.526;14.974;2023-03-14T04:39:51;13.90;;;7.60;;
77234;SDS011;66253;50.526;14.974;2023-03-14T04:42:17;13.40;;;5.90;;
77234;SDS011;66253;50.526;14.974;2023-03-14T04:44:43;12.70;;;7.60;;
77234;SDS011;66253;50.526;14.974;2023-03-14T04:47:09;10.60;;;6.40;;
77234;SDS011;66253;50.526;14.974;2023-03-14T04:49:37;12.80;;;8.10;;
77234;SDS011;66253;50.526;14.974;2023-03-14T04:52:03;12.70;;;7.50;;
77234;SDS011;66253;50.526;14.974;2023-03-14T04:54:29;12.70;;;6.80;;
77234;SDS011;66253;50.526;14.974;2023-03-14T04:56:55;11.40;;;6.40;;
77234;SDS011;66253;50.526;14.974;2023-03-14T04:59:30;13.10;;;6.40;;
77234;SDS011;66253;50.526;14.974;2023-03-14T05:01:56;12.00;;;6.10;;
77234;SDS011;66253;50.526;14.974;2023-03-14T05:04:22;17.30;;;7.00;;
77234;SDS011;66253;50.526;14.974;2023-03-14T05:06:48;12.70;;;7.70;;
77234;SDS011;66253;50.526;14.974;2023-03-14T05:09:13;15.10;;;8.70;;
77234;SDS011;66253;50.526;14.974;2023-03-14T05:11:40;11.50;;;6.50;;
77234;SDS011;66253;50.526;14.974;2023-03-14T05:14:06;12.40;;;6.40;;
77234;SDS011;66253;50.526;14.974;2023-03-14T05:16:32;10.70;;;5.80;;
77234;SDS011;66253;50.526;14.974;2023-03-14T05:18:58;11.10;;;5.70;;
77234;SDS011;66253;50.526;14.974;2023-03-14T05:21:32;11.00;;;6.10;;
77234;SDS011;66253;50.526;14.974;2023-03-14T05:23:58;11.90;;;6.10;;
77234;SDS011;66253;50.526;14.974;2023-03-14T05:26:24;10.10;;;6.70;;
77234;SDS011;66253;50.526;14.974;2023-03-14T05:28:50;12.90;;;5.50;;
77234;SDS011;66253;50.526;14.974;2023-03-14T05:31:16;11.00;;;6.10;;
77234;SDS011;66253;50.526;14.974;2023-03-14T05:33:42;11.60;;;6.70;;
77234;SDS011;66253;50.526;14.974;2023-03-14T05:36:08;14.00;;;7.10;;
77234;SDS011;66253;50.526;14.974;2023-03-14T05:38:57;13.00;;;6.10;;
77234;SDS011;66253;50.526;14.974;2023-03-14T05:41:22;12.40;;;6.10;;
77234;SDS011;66253;50.526;14.974;2023-03-14T05:43:47;13.60;;;6.70;;
77234;SDS011;66253;50.526;14.974;2023-03-14T05:46:13;12.50;;;6.90;;
77234;SDS011;66253;50.526;14.974;2023-03-14T05:48:39;13.70;;;6.30;;
77234;SDS011;66253;50.526;14.974;2023-03-14T05:51:05;11.10;;;6.00;;
77234;SDS011;66253;50.526;14.974;2023-03-14T05:53:31;11.70;;;5.30;;
77234;SDS011;66253;50.526;14.974;2023-03-14T05:55:57;11.10;;;5.70;;
77234;SDS011;66253;50.526;14.974;2023-03-14T05:58:23;10.80;;;5.50;;
77234;SDS011;66253;50.526;14.974;2023-03-14T06:00:49;14.20;;;7.90;;
77234;SDS011;66253;50.526;14.974;2023-03-14T06:03:55;12.20;;;6.50;;
77234;SDS011;66253;50.526;14.974;2023-03-14T06:07:01;10.70;;;5.70;;
77234;SDS011;66253;50.526;14.974;2023-03-14T06:09:30;11.30;;;5.90;;
77234;SDS011;66253;50.526;14.974;2023-03-14T06:11:56;10.90;;;5.40;;
77234;SDS011;66253;50.526;14.974;2023-03-14T06:14:25;10.70;;;5.40;;
77234;SDS011;66253;50.526;14.974;2023-03-14T06:16:54;10.00;;;5.50;;
77234;SDS011;66253;50.526;14.974;2023-03-14T06:19:38;10.20;;;6.10;;
77234;SDS011;66253;50.526;14.974;2023-03-14T06:22:04;10.40;;;5.30;;
77234;SDS011;66253;50.526;14.974;2023-03-14T06:24:30;12.00;;;5.60;;
77234;SDS011;66253;50.526;14.974;2023-03-14T06:26:56;10.30;;;5.50;;
77234;SDS011;66253;50.526;14.974;2023-03-14T06:29:21;10.60;;;5.10;;
77234;SDS011;66253;50.526;14.974;2023-03-14T06:31:47;10.90;;;6.20;;
77234;SDS011;66253;50.526;14.974;2023-03-14T06:34:13;11.10;;;5.20;;
77234;SDS011;66253;50.526;14.974;2023-03-14T06:36:39;9.10;;;5.00;;
77234;SDS011;66253;50.526;14.974;2023-03-14T06:39:05;10.50;;;5.00;;
77234;SDS011;66253;50.526;14.974;2023-03-14T06:41:31;13.10;;;6.70;;
77234;SDS011;66253;50.526;14.974;2023-03-14T06:43:57;12.00;;;6.40;;
77234;SDS011;66253;50.526;14.974;2023-03-14T06:46:24;14.40;;;6.10;;
77234;SDS011;66253;50.526;14.974;2023-03-14T06:48:49;10.80;;;6.00;;
77234;SDS011;66253;50.526;14.974;2023-03-14T06:51:15;12.90;;;7.60;;
77234;SDS011;66253;50.526;14.974;2023-03-14T06:53:41;14.70;;;8.10;;
77234;SDS011;66253;50.526;14.974;2023-03-14T06:56:07;14.90;;;8.60;;
77234;SDS011;66253;50.526;14.974;2023-03-14T06:58:36;16.60;;;10.00;;
77234;SDS011;66253;50.526;14.974;2023-03-14T07:01:41;17.20;;;9.10;;
77234;SDS011;66253;50.526;14.974;2023-03-14T07:04:02;19.70;;;10.30;;
77234;SDS011;66253;50.526;14.974;2023-03-14T07:06:35;15.80;;;9.60;;
77234;SDS011;66253;50.526;14.974;2023-03-14T07:09:01;17.10;;;10.50;;
77234;SDS011;66253;50.526;14.974;2023-03-14T07:11:27;16.40;;;11.50;;
77234;SDS011;66253;50.526;14.974;2023-03-14T07:14:02;16.90;;;10.90;;
77234;SDS011;66253;50.526;14.974;2023-03-14T07:20:11;15.60;;;9.70;;
77234;SDS011;66253;50.526;14.974;2023-03-14T07:22:36;14.30;;;8.70;;
77234;SDS011;66253;50.526;14.974;2023-03-14T07:25:01;17.20;;;10.10;;
77234;SDS011;66253;50.526;14.974;2023-03-14T07:27:42;16.80;;;11.30;;
77234;SDS011;66253;50.526;14.974;2023-03-14T07:30:09;15.30;;;11.90;;
77234;SDS011;66253;50.526;14.974;2023-03-14T07:32:40;17.30;;;9.20;;
77234;SDS011;66253;50.526;14.974;2023-03-14T07:35:08;11.80;;;7.70;;
77234;SDS011;66253;50.526;14.974;2023-03-14T07:37:34;13.20;;;7.10;;
77234;SDS011;66253;50.526;14.974;2023-03-14T07:40:00;13.10;;;6.50;;
77234;SDS011;66253;50.526;14.974;2023-03-14T07:42:27;8.80;;;4.70;;
77234;SDS011;66253;50.526;14.974;2023-03-14T07:44:53;9.00;;;4.90;;
77234;SDS011;66253;50.526;14.974;2023-03-14T07:47:19;9.80;;;4.70;;
77234;SDS011;66253;50.526;14.974;2023-03-14T07:49:45;9.30;;;4.30;;
77234;SDS011;66253;50.526;14.974;2023-03-14T07:52:11;7.90;;;3.90;;
77234;SDS011;66253;50.526;14.974;2023-03-14T07:54:44;7.80;;;4.00;;
77234;SDS011;66253;50.526;14.974;2023-03-14T07:57:10;6.50;;;2.90;;
77234;SDS011;66253;50.526;14.974;2023-03-14T07:59:35;5.20;;;2.20;;
77234;SDS011;66253;50.526;14.974;2023-03-14T08:02:01;5.70;;;2.30;;
77234;SDS011;66253;50.526;14.974;2023-03-14T08:04:30;5.50;;;2.30;;
77234;SDS011;66253;50.526;14.974;2023-03-14T08:06:55;4.60;;;2.00;;
77234;SDS011;66253;50.526;14.974;2023-03-14T08:09:21;4.20;;;1.60;;
77234;SDS011;66253;50.526;14.974;2023-03-14T08:11:49;5.50;;;1.70;;
77234;SDS011;66253;50.526;14.974;2023-03-14T08:14:18;4.70;;;2.30;;
77234;SDS011;66253;50.526;14.974;2023-03-14T08:16:44;7.60;;;2.80;;
77234;SDS011;66253;50.526;14.974;2023-03-14T08:19:10;7.00;;;2.50;;
77234;SDS011;66253;50.526;14.974;2023-03-14T08:21:44;6.80;;;3.60;;
77234;SDS011;66253;50.526;14.974;2023-03-14T08:24:10;8.60;;;5.50;;
77234;SDS011;66253;50.526;14.974;2023-03-14T08:26:36;8.00;;;4.60;;
77234;SDS011;66253;50.526;14.974;2023-03-14T08:29:10;10.90;;;3.60;;
77234;SDS011;66253;50.526;14.974;2023-03-14T08:31:38;8.30;;;3.40;;
77234;SDS011;66253;50.526;14.974;2023-03-14T08:34:03;7.50;;;3.60;;
77234;SDS011;66253;50.526;14.974;2023-03-14T08:36:29;8.20;;;2.70;;
77234;SDS011;66253;50.526;14.974;2023-03-14T08:38:56;4.70;;;1.80;;
77234;SDS011;66253;50.526;14.974;2023-03-14T08:41:22;5.40;;;2.10;;
77234;SDS011;66253;50.526;14.974;2023-03-14T08:43:48;4.50;;;1.70;;
77234;SDS011;66253;50.526;14.974;2023-03-14T08:46:13;6.40;;;2.30;;
77234;SDS011;66253;50.526;14.974;2023-03-14T08:48:39;6.50;;;2.00;;
77234;SDS011;66253;50.526;14.974;2023-03-14T08:51:05;4.90;;;2.60;;
77234;SDS011;66253;50.526;14.974;2023-03-14T08:53:32;4.60;;;1.80;;
77234;SDS011;66253;50.526;14.974;2023-03-14T08:55:58;5.00;;;2.80;;
77234;SDS011;66253;50.526;14.974;2023-03-14T08:58:24;5.20;;;1.70;;
77234;SDS011;66253;50.526;14.974;2023-03-14T09:00:50;6.70;;;1.90;;
77234;SDS011;66253;50.526;14.974;2023-03-14T09:03:16;7.00;;;1.90;;
77234;SDS011;66253;50.526;14.974;2023-03-14T09:05:42;4.60;;;1.30;;
77234;SDS011;66253;50.526;14.974;2023-03-14T09:08:07;5.20;;;1.50;;
77234;SDS011;66253;50.526;14.974;2023-03-14T09:10:33;4.30;;;1.90;;
77234;SDS011;66253;50.526;14.974;2023-03-14T09:12:58;3.60;;;1.70;;
77234;SDS011;66253;50.526;14.974;2023-03-14T09:15:25;3.50;;;1.20;;
77234;SDS011;66253;50.526;14.974;2023-03-14T09:17:51;5.20;;;1.50;;
77234;SDS011;66253;50.526;14.974;2023-03-14T09:20:17;3.50;;;1.10;;
77234;SDS011;66253;50.526;14.974;2023-03-14T09:22:45;5.20;;;1.40;;
77234;SDS011;66253;50.526;14.974;2023-03-14T09:25:11;3.00;;;0.60;;
77234;SDS011;66253;50.526;14.974;2023-03-14T09:27:36;2.50;;;0.70;;
77234;SDS011;66253;50.526;14.974;2023-03-14T09:30:05;2.50;;;1.20;;
77234;SDS011;66253;50.526;14.974;2023-03-14T09:32:31;2.80;;;0.80;;
77234;SDS011;66253;50.526;14.974;2023-03-14T09:35:07;2.40;;;1.20;;
77234;SDS011;66253;50.526;14.974;2023-03-14T09:40:38;2.70;;;0.80;;
77234;SDS011;66253;50.526;14.974;2023-03-14T09:43:03;2.60;;;0.70;;
77234;SDS011;66253;50.526;14.974;2023-03-14T09:45:34;3.70;;;0.70;;
77234;SDS011;66253;50.526;14.974;2023-03-14T09:48:03;2.00;;;0.40;;
77234;SDS011;66253;50.526;14.974;2023-03-14T09:50:31;1.40;;;0.20;;
77234;SDS011;66253;50.526;14.974;2023-03-14T09:53:04;6.00;;;0.70;;
77234;SDS011;66253;50.526;14.974;2023-03-14T09:55:39;2.10;;;0.50;;
77234;SDS011;66253;50.526;14.974;2023-03-14T09:58:16;3.40;;;0.60;;
77234;SDS011;66253;50.526;14.974;2023-03-14T10:00:45;3.90;;;0.90;;
77234;SDS011;66253;50.526;14.974;2023-03-14T10:03:19;2.30;;;0.30;;
77234;SDS011;66253;50.526;14.974;2023-03-14T10:05:49;2.60;;;0.70;;
77234;SDS011;66253;50.526;14.974;2023-03-14T10:08:15;2.90;;;0.80;;
77234;SDS011;66253;50.526;14.974;2023-03-14T10:10:41;3.00;;;0.80;;
77234;SDS011;66253;50.526;14.974;2023-03-14T10:15:35;3.40;;;1.10;;
77234;SDS011;66253;50.526;14.974;2023-03-14T10:18:03;2.60;;;0.80;;
77234;SDS011;66253;50.526;14.974;2023-03-14T10:20:42;3.20;;;1.10;;
77234;SDS011;66253;50.526;14.974;2023-03-14T10:25:39;3.10;;;0.90;;
77234;SDS011;66253;50.526;14.974;2023-03-14T10:33:22;1.80;;;0.30;;
77234;SDS011;66253;50.526;14.974;2023-03-14T10:35:56;3.50;;;0.90;;
77234;SDS011;66253;50.526;14.974;2023-03-14T10:38:25;4.90;;;1.90;;
77234;SDS011;66253;50.526;14.974;2023-03-14T10:40:53;4.40;;;0.60;;
77234;SDS011;66253;50.526;14.974;2023-03-14T10:43:24;3.40;;;0.90;;
77234;SDS011;66253;50.526;14.974;2023-03-14T10:45:56;4.80;;;1.70;;
77234;SDS011;66253;50.526;14.974;2023-03-14T10:48:29;3.30;;;1.00;;
77234;SDS011;66253;50.526;14.974;2023-03-14T10:53:42;2.70;;;0.50;;
77234;SDS011;66253;50.526;14.974;2023-03-14T10:56:12;3.40;;;0.40;;
77234;SDS011;66253;50.526;14.974;2023-03-14T10:58:44;5.10;;;1.70;;
77234;SDS011;66253;50.526;14.974;2023-03-14T11:04:10;3.60;;;1.00;;
77234;SDS011;66253;50.526;14.974;2023-03-14T11:09:45;4.10;;;1.70;;
77234;SDS011;66253;50.526;14.974;2023-03-14T11:14:47;4.70;;;1.80;;
77234;SDS011;66253;50.526;14.974;2023-03-14T11:22:59;4.20;;;1.70;;
77234;SDS011;66253;50.526;14.974;2023-03-14T11:28:40;4.70;;;1.60;;
77234;SDS011;66253;50.526;14.974;2023-03-14T11:36:36;3.30;;;1.40;;
77234;SDS011;66253;50.526;14.974;2023-03-14T11:39:08;5.40;;;1.20;;
77234;SDS011;66253;50.526;14.974;2023-03-14T11:41:40;4.80;;;1.20;;
77234;SDS011;66253;50.526;14.974;2023-03-14T11:44:18;4.50;;;1.80;;
77234;SDS011;66253;50.526;14.974;2023-03-14T11:46:50;9.00;;;3.30;;
77234;SDS011;66253;50.526;14.974;2023-03-14T11:52:01;5.50;;;2.20;;
77234;SDS011;66253;50.526;14.974;2023-03-14T11:54:49;3.60;;;0.90;;
77234;SDS011;66253;50.526;14.974;2023-03-14T11:57:21;3.80;;;0.90;;
77234;SDS011;66253;50.526;14.974;2023-03-14T12:00:04;3.50;;;1.30;;
77234;SDS011;66253;50.526;14.974;2023-03-14T12:05:46;5.10;;;1.20;;
77234;SDS011;66253;50.526;14.974;2023-03-14T12:08:49;2.70;;;0.70;;
77234;SDS011;66253;50.526;14.974;2023-03-14T12:14:18;2.20;;;0.50;;
77234;SDS011;66253;50.526;14.974;2023-03-14T12:16:47;2.80;;;1.20;;
77234;SDS011;66253;50.526;14.974;2023-03-14T12:21:50;1.80;;;0.40;;
77234;SDS011;66253;50.526;14.974;2023-03-14T12:24:33;2.00;;;0.40;;
77234;SDS011;66253;50.526;14.974;2023-03-14T12:27:03;1.70;;;0.40;;
77234;SDS011;66253;50.526;14.974;2023-03-14T12:29:37;2.50;;;0.80;;
77234;SDS011;66253;50.526;14.974;2023-03-14T12:32:24;2.90;;;0.70;;
77234;SDS011;66253;50.526;14.974;2023-03-14T12:34:50;3.80;;;0.70;;
77234;SDS011;66253;50.526;14.974;2023-03-14T12:37:18;3.00;;;1.10;;
77234;SDS011;66253;50.526;14.974;2023-03-14T12:45:28;4.90;;;1.60;;
77234;SDS011;66253;50.526;14.974;2023-03-14T12:50:46;2.80;;;0.50;;
77234;SDS011;66253;50.526;14.974;2023-03-14T12:56:06;3.10;;;0.90;;
77234;SDS011;66253;50.526;14.974;2023-03-14T12:58:59;4.20;;;1.60;;
77234;SDS011;66253;50.526;14.974;2023-03-14T13:01:31;2.90;;;0.60;;
77234;SDS011;66253;50.526;14.974;2023-03-14T13:04:02;4.60;;;1.00;;
77234;SDS011;66253;50.526;14.974;2023-03-14T13:06:50;4.30;;;1.50;;
77234;SDS011;66253;50.526;14.974;2023-03-14T13:12:03;3.20;;;1.10;;
77234;SDS011;66253;50.526;14.974;2023-03-14T13:14:48;3.40;;;1.00;;
77234;SDS011;66253;50.526;14.974;2023-03-14T13:17:25;3.30;;;1.50;;
77234;SDS011;66253;50.526;14.974;2023-03-14T13:19:53;4.00;;;1.20;;
77234;SDS011;66253;50.526;14.974;2023-03-14T13:22:24;4.30;;;1.30;;
77234;SDS011;66253;50.526;14.974;2023-03-14T13:27:32;4.10;;;1.60;;
77234;SDS011;66253;50.526;14.974;2023-03-14T13:30:22;2.30;;;0.80;;
77234;SDS011;66253;50.526;14.974;2023-03-14T13:32:48;3.00;;;0.90;;
77234;SDS011;66253;50.526;14.974;2023-03-14T13:38:00;6.40;;;2.20;;
77234;SDS011;66253;50.526;14.974;2023-03-14T13:40:34;6.50;;;2.50;;
77234;SDS011;66253;50.526;14.974;2023-03-14T13:43:23;7.50;;;2.70;;
77234;SDS011;66253;50.526;14.974;2023-03-14T13:46:13;6.30;;;1.70;;
77234;SDS011;66253;50.526;14.974;2023-03-14T13:48:47;6.80;;;3.00;;
77234;SDS011;66253;50.526;14.974;2023-03-14T13:51:18;7.20;;;2.50;;
77234;SDS011;66253;50.526;14.974;2023-03-14T13:53:47;4.20;;;1.50;;
77234;SDS011;66253;50.526;14.974;2023-03-14T13:56:18;4.10;;;1.20;;
77234;SDS011;66253;50.526;14.974;2023-03-14T13:58:47;4.60;;;1.10;;
77234;SDS011;66253;50.526;14.974;2023-03-14T14:01:15;6.50;;;1.30;;
77234;SDS011;66253;50.526;14.974;2023-03-14T14:03:49;3.90;;;1.40;;
77234;SDS011;66253;50.526;14.974;2023-03-14T14:06:23;3.30;;;0.70;;
77234;SDS011;66253;50.526;14.974;2023-03-14T14:08:56;2.70;;;1.00;;
77234;SDS011;66253;50.526;14.974;2023-03-14T14:11:30;4.60;;;1.20;;
77234;SDS011;66253;50.526;14.974;2023-03-14T14:16:57;3.00;;;1.10;;
77234;SDS011;66253;50.526;14.974;2023-03-14T14:19:27;4.40;;;1.70;;
77234;SDS011;66253;50.526;14.974;2023-03-14T14:21:55;4.30;;;1.30;;
77234;SDS011;66253;50.526;14.974;2023-03-14T14:24:23;5.30;;;1.90;;
77234;SDS011;66253;50.526;14.974;2023-03-14T14:27:08;4.60;;;1.00;;
77234;SDS011;66253;50.526;14.974;2023-03-14T14:29:42;4.10;;;1.10;;
77234;SDS011;66253;50.526;14.974;2023-03-14T14:34:44;4.30;;;1.30;;
77234;SDS011;66253;50.526;14.974;2023-03-14T14:37:18;4.00;;;1.80;;
77234;SDS011;66253;50.526;14.974;2023-03-14T14:39:50;8.40;;;2.90;;
77234;SDS011;66253;50.526;14.974;2023-03-14T14:42:24;5.30;;;2.50;;
77234;SDS011;66253;50.526;14.974;2023-03-14T14:44:52;7.70;;;2.80;;
77234;SDS011;66253;50.526;14.974;2023-03-14T14:47:20;6.20;;;2.90;;
77234;SDS011;66253;50.526;14.974;2023-03-14T14:49:48;6.70;;;2.80;;
77234;SDS011;66253;50.526;14.974;2023-03-14T14:52:17;4.90;;;2.70;;
77234;SDS011;66253;50.526;14.974;2023-03-14T14:57:27;4.00;;;1.20;;
77234;SDS011;66253;50.526;14.974;2023-03-14T15:00:00;3.70;;;1.30;;
77234;SDS011;66253;50.526;14.974;2023-03-14T15:02:37;3.10;;;1.20;;
77234;SDS011;66253;50.526;14.974;2023-03-14T15:05:21;2.90;;;0.80;;
77234;SDS011;66253;50.526;14.974;2023-03-14T15:07:52;3.60;;;1.10;;
77234;SDS011;66253;50.526;14.974;2023-03-14T15:10:19;5.40;;;1.50;;
77234;SDS011;66253;50.526;14.974;2023-03-14T15:12:48;5.90;;;3.20;;
77234;SDS011;66253;50.526;14.974;2023-03-14T15:15:14;4.30;;;1.00;;
77234;SDS011;66253;50.526;14.974;2023-03-14T15:17:41;2.60;;;0.80;;
77234;SDS011;66253;50.526;14.974;2023-03-14T15:20:15;3.00;;;0.90;;
77234;SDS011;66253;50.526;14.974;2023-03-14T15:22:44;3.20;;;0.80;;
77234;SDS011;66253;50.526;14.974;2023-03-14T15:25:10;5.60;;;2.80;;
77234;SDS011;66253;50.526;14.974;2023-03-14T15:27:37;4.60;;;1.80;;
77234;SDS011;66253;50.526;14.974;2023-03-14T15:30:14;6.00;;;1.10;;
77234;SDS011;66253;50.526;14.974;2023-03-14T15:32:41;4.50;;;1.60;;
77234;SDS011;66253;50.526;14.974;2023-03-14T15:35:07;3.90;;;0.80;;
77234;SDS011;66253;50.526;14.974;2023-03-14T15:37:33;2.40;;;0.70;;
77234;SDS011;66253;50.526;14.974;2023-03-14T15:40:00;2.50;;;0.90;;
77234;SDS011;66253;50.526;14.974;2023-03-14T15:42:28;3.20;;;1.30;;
77234;SDS011;66253;50.526;14.974;2023-03-14T15:44:53;4.40;;;1.20;;
77234;SDS011;66253;50.526;14.974;2023-03-14T15:47:19;4.50;;;2.00;;
77234;SDS011;66253;50.526;14.974;2023-03-14T15:49:45;5.10;;;1.50;;
77234;SDS011;66253;50.526;14.974;2023-03-14T15:52:10;4.80;;;2.20;;
77234;SDS011;66253;50.526;14.974;2023-03-14T15:54:36;6.70;;;2.80;;
77234;SDS011;66253;50.526;14.974;2023-03-14T15:57:02;3.80;;;1.60;;
77234;SDS011;66253;50.526;14.974;2023-03-14T15:59:28;3.80;;;1.70;;
77234;SDS011;66253;50.526;14.974;2023-03-14T16:01:56;4.00;;;1.50;;
77234;SDS011;66253;50.526;14.974;2023-03-14T16:04:25;5.90;;;2.10;;
77234;SDS011;66253;50.526;14.974;2023-03-14T16:06:51;4.60;;;2.00;;
77234;SDS011;66253;50.526;14.974;2023-03-14T16:09:17;11.70;;;4.50;;
77234;SDS011;66253;50.526;14.974;2023-03-14T16:11:54;7.20;;;2.60;;
77234;SDS011;66253;50.526;14.974;2023-03-14T16:14:20;4.60;;;1.80;;
77234;SDS011;66253;50.526;14.974;2023-03-14T16:16:55;5.50;;;2.20;;
77234;SDS011;66253;50.526;14.974;2023-03-14T16:19:27;4.30;;;2.00;;
77234;SDS011;66253;50.526;14.974;2023-03-14T16:21:53;5.40;;;2.30;;